Time;durP1;ratioP1;P1;durP2;ratioP2;P2;SDS_P1;SDS_P2;PMS_P1;PMS_P2;Temp;Humidity;BMP_temperature;BMP_pressure;BME280_temperature;BME280_humidity;BME280_pressure;Samples;Min_cycle;Max_cycle;Signal;HPM_P1;HPM_P2
2021/12/09 00:00:20;;;;;;;39.88;18.33;;;3.90;99.90;;;;;;4993995;28;20022;-53
2021/12/09 00:02:46;;;;;;;34.20;17.65;;;3.90;99.90;;;;;;4995114;28;20042;-54
2021/12/09 00:05:15;;;;;;;35.33;18.88;;;3.80;99.90;;;;;;4995362;28;20400;-55
2021/12/09 00:07:42;;;;;;;34.92;18.63;;;3.80;99.90;;;;;;4995910;28;20038;-56
2021/12/09 00:10:09;;;;;;;39.42;19.20;;;3.80;99.90;;;;;;4995575;28;20125;-55
2021/12/09 00:12:36;;;;;;;38.38;18.63;;;3.80;99.90;;;;;;4993677;28;20567;-56
2021/12/09 00:15:01;;;;;;;33.03;17.77;;;3.80;99.90;;;;;;4993833;28;20069;-54
2021/12/09 00:17:27;;;;;;;37.72;20.15;;;3.80;99.90;;;;;;4995316;28;20164;-54
2021/12/09 00:19:52;;;;;;;32.08;18.35;;;3.90;99.90;;;;;;4995327;28;20037;-54
2021/12/09 00:22:18;;;;;;;37.88;20.17;;;3.80;99.90;;;;;;4994714;28;20101;-52
2021/12/09 00:24:43;;;;;;;38.45;19.33;;;3.80;99.90;;;;;;4994790;28;20030;-54
2021/12/09 00:27:09;;;;;;;36.97;18.85;;;3.80;99.90;;;;;;4994768;28;20026;-56
2021/12/09 00:29:35;;;;;;;39.28;19.02;;;3.90;99.90;;;;;;4994938;28;20054;-56
2021/12/09 00:32:01;;;;;;;39.28;20.20;;;3.90;99.90;;;;;;4994651;28;20031;-55
2021/12/09 00:34:35;;;;;;;38.78;19.65;;;3.80;99.90;;;;;;4994924;28;20113;-52
2021/12/09 00:37:54;;;;;;;45.40;21.23;;;3.80;99.90;;;;;;4994509;28;20041;-52
2021/12/09 00:39:57;;;;;;;42.70;21.45;;;3.80;99.90;;;;;;4991376;28;20085;-55
2021/12/09 00:42:24;;;;;;;43.47;20.50;;;3.80;99.90;;;;;;4994343;28;20065;-53
2021/12/09 00:44:50;;;;;;;45.05;20.83;;;3.80;99.90;;;;;;4994412;28;20030;-54
2021/12/09 00:47:17;;;;;;;40.92;21.15;;;3.80;99.90;;;;;;4994364;28;20468;-55
2021/12/09 00:49:43;;;;;;;38.50;19.33;;;3.80;99.90;;;;;;4994251;28;20100;-54
2021/12/09 00:52:09;;;;;;;44.80;21.48;;;3.80;99.90;;;;;;4994541;28;20030;-55
2021/12/09 00:54:35;;;;;;;41.58;20.55;;;3.80;99.90;;;;;;4994558;28;20078;-55
2021/12/09 00:57:00;;;;;;;44.65;20.08;;;3.70;99.90;;;;;;4995503;28;20034;-54
2021/12/09 00:59:26;;;;;;;45.45;21.13;;;3.70;99.90;;;;;;4996445;28;20033;-53
2021/12/09 01:01:52;;;;;;;44.42;20.75;;;3.70;99.90;;;;;;4995099;28;20031;-54
2021/12/09 01:04:17;;;;;;;39.03;19.80;;;3.70;99.90;;;;;;4994162;28;20026;-52
2021/12/09 01:06:43;;;;;;;39.53;20.20;;;3.80;99.90;;;;;;4994102;28;20030;-56
2021/12/09 01:09:09;;;;;;;43.75;21.63;;;3.80;99.90;;;;;;4994313;28;20026;-55
2021/12/09 01:11:34;;;;;;;42.50;21.27;;;3.70;99.90;;;;;;4994218;28;20095;-55
2021/12/09 01:14:00;;;;;;;43.33;20.63;;;3.70;99.90;;;;;;4994285;28;20023;-54
2021/12/09 01:16:26;;;;;;;39.03;20.25;;;3.70;99.90;;;;;;4993891;28;20026;-54
2021/12/09 01:18:52;;;;;;;41.03;22.45;;;3.70;99.90;;;;;;4994318;28;20118;-51
2021/12/09 01:21:17;;;;;;;45.65;21.25;;;3.70;99.90;;;;;;4993910;28;20549;-55
2021/12/09 01:23:43;;;;;;;44.67;21.80;;;3.70;99.90;;;;;;4993849;28;20122;-51
2021/12/09 01:26:09;;;;;;;43.83;22.15;;;3.70;99.90;;;;;;4994345;28;20030;-53
2021/12/09 01:28:48;;;;;;;40.35;20.75;;;3.70;99.90;;;;;;4994112;28;20388;-52
2021/12/09 01:31:22;;;;;;;44.00;22.10;;;3.70;99.90;;;;;;4994439;28;20018;-53
2021/12/09 01:33:51;;;;;;;42.67;21.50;;;3.70;99.90;;;;;;4994230;28;20044;-55
2021/12/09 01:36:17;;;;;;;44.15;21.88;;;3.70;99.90;;;;;;4992379;28;20044;-52
2021/12/09 01:38:42;;;;;;;40.45;20.67;;;3.70;99.90;;;;;;4993865;28;20527;-53
2021/12/09 01:41:08;;;;;;;43.35;22.52;;;3.80;99.90;;;;;;4993567;28;20026;-55
2021/12/09 01:43:33;;;;;;;41.15;21.70;;;3.80;99.90;;;;;;4993671;28;20100;-53
2021/12/09 01:46:12;;;;;;;47.55;24.15;;;3.70;99.90;;;;;;4993640;28;20022;-51
2021/12/09 01:48:40;;;;;;;40.03;21.63;;;3.70;99.90;;;;;;4993257;28;20042;-56
2021/12/09 01:51:07;;;;;;;49.50;22.80;;;3.60;99.90;;;;;;4993118;28;20019;-51
2021/12/09 01:53:33;;;;;;;43.22;22.58;;;3.60;99.90;;;;;;4993622;28;20045;-51
2021/12/09 01:56:01;;;;;;;45.45;23.45;;;3.60;99.90;;;;;;4994251;28;20070;-54
2021/12/09 01:58:27;;;;;;;46.38;23.25;;;3.60;99.90;;;;;;4996043;28;20034;-55
2021/12/09 02:00:54;;;;;;;45.20;22.70;;;3.60;99.90;;;;;;4993823;28;20050;-54
2021/12/09 02:03:20;;;;;;;45.97;23.45;;;3.60;99.90;;;;;;4992621;28;20030;-55
2021/12/09 02:05:46;;;;;;;47.15;23.02;;;3.60;99.90;;;;;;4993507;28;20368;-53
2021/12/09 02:08:13;;;;;;;47.42;24.23;;;3.60;99.90;;;;;;4993010;28;20026;-56
2021/12/09 02:10:41;;;;;;;43.78;23.63;;;3.60;99.90;;;;;;4993412;28;20447;-54
2021/12/09 02:13:06;;;;;;;48.67;23.45;;;3.60;99.90;;;;;;4993176;28;20030;-55
2021/12/09 02:15:33;;;;;;;53.28;25.65;;;3.50;99.90;;;;;;4993164;28;20041;-54
2021/12/09 02:17:58;;;;;;;46.47;22.27;;;3.50;99.90;;;;;;4993788;28;20029;-56
2021/12/09 02:20:28;;;;;;;46.50;22.80;;;3.50;99.90;;;;;;4993090;28;20424;-55
2021/12/09 02:22:56;;;;;;;42.55;22.48;;;3.40;99.90;;;;;;4993285;28;20033;-55
2021/12/09 02:25:23;;;;;;;44.80;23.17;;;3.40;99.90;;;;;;4993231;28;20026;-54
2021/12/09 02:27:49;;;;;;;47.78;22.90;;;3.40;99.90;;;;;;4993482;28;20109;-56
2021/12/09 02:30:16;;;;;;;46.05;23.48;;;3.40;99.90;;;;;;4993405;28;20046;-53
2021/12/09 02:32:42;;;;;;;42.90;22.58;;;3.40;99.90;;;;;;4993124;28;20026;-55
2021/12/09 02:35:09;;;;;;;44.47;23.58;;;3.40;99.90;;;;;;4992963;28;20495;-53
2021/12/09 02:37:35;;;;;;;53.17;24.80;;;3.30;99.90;;;;;;4992864;28;20041;-55
2021/12/09 02:40:01;;;;;;;48.53;23.60;;;3.30;99.90;;;;;;4993037;28;20022;-54
2021/12/09 02:42:27;;;;;;;46.78;23.88;;;3.20;99.90;;;;;;4992820;28;20369;-52
2021/12/09 02:44:55;;;;;;;46.85;22.77;;;3.30;99.90;;;;;;4993079;28;20363;-54
2021/12/09 02:47:21;;;;;;;54.50;24.95;;;3.30;99.90;;;;;;4993126;28;20106;-54
2021/12/09 02:49:46;;;;;;;52.90;25.23;;;3.20;99.90;;;;;;4991333;28;20479;-56
2021/12/09 02:52:12;;;;;;;52.60;24.30;;;3.20;99.90;;;;;;4992638;28;20048;-55
2021/12/09 02:54:37;;;;;;;44.15;23.60;;;3.20;99.90;;;;;;4992471;28;20022;-52
2021/12/09 02:57:06;;;;;;;52.38;23.90;;;3.20;99.90;;;;;;4992509;28;20022;-55
2021/12/09 02:59:43;;;;;;;51.05;24.58;;;3.30;99.90;;;;;;4993033;28;20411;-54
2021/12/09 03:02:11;;;;;;;49.53;25.08;;;3.20;99.90;;;;;;4992851;28;20393;-56
2021/12/09 03:04:39;;;;;;;48.58;23.63;;;3.20;99.90;;;;;;4992886;28;20101;-56
2021/12/09 03:07:11;;;;;;;54.33;25.42;;;3.20;99.90;;;;;;4992846;28;20550;-54
2021/12/09 03:09:37;;;;;;;55.42;24.52;;;3.10;99.90;;;;;;4993183;28;20372;-54
2021/12/09 03:12:05;;;;;;;55.08;26.08;;;3.10;99.90;;;;;;4992838;28;20022;-54
2021/12/09 03:14:31;;;;;;;49.45;24.63;;;3.20;99.90;;;;;;4992707;28;20037;-56
2021/12/09 03:16:57;;;;;;;55.72;25.38;;;3.20;99.90;;;;;;4992651;28;20100;-54
2021/12/09 03:19:23;;;;;;;52.88;25.58;;;3.10;99.90;;;;;;4993637;28;20113;-54
2021/12/09 03:21:49;;;;;;;54.85;26.13;;;3.20;99.90;;;;;;4997078;28;20027;-56
2021/12/09 03:24:18;;;;;;;51.17;25.45;;;3.10;99.90;;;;;;4997538;28;20034;-55
2021/12/09 03:26:54;;;;;;;55.75;26.60;;;3.10;99.90;;;;;;4997214;28;20022;-56
2021/12/09 03:29:20;;;;;;;54.35;26.17;;;3.10;99.90;;;;;;4996653;28;20042;-55
2021/12/09 03:31:49;;;;;;;56.15;25.70;;;3.10;99.90;;;;;;4996563;28;20023;-53
2021/12/09 03:34:16;;;;;;;56.08;26.45;;;3.10;99.90;;;;;;4997422;28;20073;-53
2021/12/09 03:36:43;;;;;;;47.53;25.40;;;3.00;99.90;;;;;;4996613;28;20026;-54
2021/12/09 03:39:15;;;;;;;49.65;26.17;;;3.10;99.90;;;;;;4997207;28;20027;-55
2021/12/09 03:41:42;;;;;;;53.28;25.23;;;3.10;99.90;;;;;;4997145;28;20026;-54
2021/12/09 03:44:08;;;;;;;52.65;25.63;;;3.10;99.90;;;;;;4996252;28;20114;-55
2021/12/09 03:46:35;;;;;;;51.30;25.95;;;3.10;99.90;;;;;;4996501;28;20050;-55
2021/12/09 03:49:01;;;;;;;57.15;25.40;;;3.10;99.90;;;;;;4996048;28;20168;-55
2021/12/09 03:51:27;;;;;;;51.45;25.08;;;3.10;99.90;;;;;;4995907;28;20045;-52
2021/12/09 03:53:53;;;;;;;60.50;27.90;;;3.20;99.90;;;;;;4996221;28;20093;-56
2021/12/09 03:56:19;;;;;;;55.00;26.77;;;3.10;99.90;;;;;;4996219;28;20109;-56
2021/12/09 03:58:45;;;;;;;55.67;26.38;;;3.10;99.90;;;;;;4996103;28;20424;-55
2021/12/09 04:01:11;;;;;;;54.88;25.45;;;3.10;99.90;;;;;;4996056;28;20116;-56
2021/12/09 04:03:37;;;;;;;56.50;26.77;;;3.00;99.90;;;;;;4996004;28;20033;-55
2021/12/09 04:06:03;;;;;;;52.97;27.25;;;3.00;99.90;;;;;;4995975;28;20056;-55
2021/12/09 04:08:28;;;;;;;59.10;27.98;;;3.00;99.90;;;;;;4996214;28;20657;-55
2021/12/09 04:10:55;;;;;;;54.67;25.88;;;3.00;99.90;;;;;;4996246;28;20025;-54
2021/12/09 04:13:20;;;;;;;61.67;26.08;;;3.10;99.90;;;;;;4996182;28;20066;-52
2021/12/09 04:15:46;;;;;;;59.40;28.70;;;3.00;99.90;;;;;;4995839;28;20353;-52
2021/12/09 04:18:12;;;;;;;61.67;27.25;;;3.10;99.90;;;;;;4996022;28;20023;-55
2021/12/09 04:20:39;;;;;;;56.80;27.27;;;3.10;99.90;;;;;;4995755;28;20538;-55
2021/12/09 04:23:05;;;;;;;57.95;26.23;;;3.00;99.90;;;;;;4995562;28;20045;-52
2021/12/09 04:25:31;;;;;;;52.88;26.88;;;3.00;99.90;;;;;;4995673;28;20118;-52
2021/12/09 04:27:57;;;;;;;63.70;27.38;;;3.00;99.90;;;;;;4995841;28;20031;-54
2021/12/09 04:30:24;;;;;;;58.90;27.58;;;3.00;99.90;;;;;;4995190;28;20026;-54
2021/12/09 04:32:54;;;;;;;57.35;26.98;;;3.00;99.90;;;;;;4995357;28;20030;-52
2021/12/09 04:35:20;;;;;;;52.53;27.85;;;3.00;99.90;;;;;;4996050;28;20029;-56
2021/12/09 04:37:47;;;;;;;54.38;27.88;;;3.00;99.90;;;;;;4995624;28;20018;-53
2021/12/09 04:40:14;;;;;;;67.20;30.38;;;3.00;99.90;;;;;;4996230;28;20471;-52
2021/12/09 04:42:40;;;;;;;67.13;29.35;;;3.10;99.90;;;;;;4997784;28;20431;-51
2021/12/09 04:45:07;;;;;;;69.50;30.88;;;3.00;99.90;;;;;;4996394;28;20030;-51
2021/12/09 04:47:33;;;;;;;62.20;27.75;;;3.00;99.90;;;;;;4997785;28;20394;-51
2021/12/09 04:49:59;;;;;;;65.72;28.90;;;3.00;99.90;;;;;;5023253;22;20049;-52
2021/12/09 04:52:24;;;;;;;78.07;31.35;;;3.00;99.90;;;;;;5015901;28;20423;-49
2021/12/09 04:54:50;;;;;;;61.45;28.88;;;3.00;99.90;;;;;;5016052;28;20077;-51
2021/12/09 04:57:17;;;;;;;62.20;30.02;;;3.00;99.90;;;;;;5016621;28;20382;-52
2021/12/09 04:59:43;;;;;;;69.30;30.17;;;3.10;99.90;;;;;;5016874;28;20148;-52
2021/12/09 05:02:15;;;;;;;65.38;29.23;;;3.00;99.90;;;;;;5016769;28;20060;-54
2021/12/09 05:04:40;;;;;;;65.20;29.60;;;3.00;99.90;;;;;;5015600;28;20034;-50
2021/12/09 05:07:06;;;;;;;63.00;29.23;;;2.90;99.90;;;;;;5015343;28;20127;-49
2021/12/09 05:09:37;;;;;;;67.97;29.15;;;3.00;99.90;;;;;;5015118;28;20049;-50
2021/12/09 05:12:05;;;;;;;71.30;29.63;;;3.00;99.90;;;;;;5015709;28;20379;-49
2021/12/09 05:14:31;;;;;;;69.00;29.75;;;3.00;99.90;;;;;;5015409;28;20399;-51
2021/12/09 05:16:57;;;;;;;64.72;30.38;;;3.10;99.90;;;;;;5015061;28;20026;-50
2021/12/09 05:19:24;;;;;;;70.15;32.60;;;3.00;99.90;;;;;;5013863;28;20168;-50
2021/12/09 05:21:52;;;;;;;65.95;29.75;;;3.10;99.90;;;;;;5015338;28;20121;-50
2021/12/09 05:24:18;;;;;;;73.20;31.80;;;3.10;99.90;;;;;;5014904;28;20403;-52
2021/12/09 05:26:48;;;;;;;78.13;31.33;;;3.10;99.90;;;;;;5014580;28;20026;-50
2021/12/09 05:29:16;;;;;;;77.57;32.05;;;3.10;99.90;;;;;;5015629;28;20424;-54
2021/12/09 05:34:26;;;;;;;79.70;33.08;;;3.10;99.90;;;;;;5015302;28;20129;-50
2021/12/09 05:36:53;;;;;;;88.28;36.05;;;3.10;99.90;;;;;;5014983;28;20057;-51
2021/12/09 05:39:19;;;;;;;89.97;36.22;;;3.10;99.90;;;;;;5014844;28;20050;-50
2021/12/09 05:41:46;;;;;;;92.35;34.28;;;3.20;99.90;;;;;;5014043;28;20109;-53
2021/12/09 05:44:13;;;;;;;91.53;35.30;;;3.20;99.90;;;;;;5014844;28;20034;-53
2021/12/09 05:46:42;;;;;;;83.25;34.00;;;3.10;99.90;;;;;;5015057;28;20517;-51
2021/12/09 05:49:08;;;;;;;90.68;35.70;;;3.10;99.90;;;;;;5014370;28;20129;-53
2021/12/09 05:51:34;;;;;;;86.85;34.05;;;3.10;99.90;;;;;;5014543;28;20029;-49
2021/12/09 05:53:59;;;;;;;86.10;35.20;;;3.10;99.90;;;;;;5014507;28;20026;-50
2021/12/09 05:56:25;;;;;;;90.60;34.10;;;3.10;99.90;;;;;;5013711;28;20033;-51
2021/12/09 05:58:51;;;;;;;91.22;36.95;;;3.10;99.90;;;;;;5014106;28;20031;-54
2021/12/09 06:01:17;;;;;;;94.40;36.47;;;3.20;99.90;;;;;;5014604;28;20037;-52
2021/12/09 06:03:43;;;;;;;94.15;35.03;;;3.20;99.90;;;;;;5012796;28;20022;-52
2021/12/09 06:06:09;;;;;;;93.43;36.92;;;3.10;99.90;;;;;;5014430;28;20022;-53
2021/12/09 06:08:38;;;;;;;103.63;36.90;;;3.20;99.90;;;;;;5014260;28;20026;-50
2021/12/09 06:11:05;;;;;;;97.35;38.53;;;3.30;99.90;;;;;;5013974;28;20018;-49
2021/12/09 06:13:32;;;;;;;93.43;35.88;;;3.20;99.90;;;;;;5014565;28;20026;-51
2021/12/09 06:15:58;;;;;;;96.65;37.17;;;3.30;99.90;;;;;;5016592;28;20030;-51
2021/12/09 06:18:24;;;;;;;101.03;37.67;;;3.20;99.90;;;;;;5016124;28;20037;-50
2021/12/09 06:20:50;;;;;;;91.53;35.00;;;3.20;99.90;;;;;;5016259;28;20026;-49
2021/12/09 06:23:16;;;;;;;95.97;35.33;;;3.20;99.90;;;;;;5016702;28;20023;-49
2021/12/09 06:25:42;;;;;;;98.55;36.03;;;3.20;99.90;;;;;;5016690;28;20018;-50
2021/12/09 06:28:08;;;;;;;108.70;38.20;;;3.20;99.90;;;;;;5015531;28;20030;-50
2021/12/09 06:30:34;;;;;;;94.70;36.75;;;3.30;99.90;;;;;;5015127;28;20037;-52
2021/12/09 06:32:59;;;;;;;91.07;35.50;;;3.20;99.90;;;;;;5014732;28;20382;-50
2021/12/09 06:35:27;;;;;;;94.32;36.92;;;3.30;99.90;;;;;;5014539;28;20026;-50
2021/12/09 06:37:53;;;;;;;90.28;36.83;;;3.30;99.90;;;;;;5014471;28;20106;-50
2021/12/09 06:40:20;;;;;;;90.75;34.60;;;3.30;99.90;;;;;;5014171;28;20096;-49
2021/12/09 06:42:47;;;;;;;90.22;34.13;;;3.20;99.90;;;;;;5014149;28;20525;-51
2021/12/09 06:45:14;;;;;;;91.00;36.63;;;3.30;99.90;;;;;;5014313;28;20032;-53
2021/12/09 06:47:41;;;;;;;92.50;35.95;;;3.20;99.90;;;;;;5013890;28;20033;-53
2021/12/09 06:50:09;;;;;;;92.60;36.53;;;3.20;99.90;;;;;;5015312;28;20490;-51
2021/12/09 06:52:35;;;;;;;90.32;35.28;;;3.20;99.90;;;;;;5013858;28;20033;-49
2021/12/09 06:55:00;;;;;;;102.30;35.30;;;3.20;99.90;;;;;;5013496;28;20102;-54
2021/12/09 06:57:27;;;;;;;93.30;35.42;;;3.20;99.90;;;;;;5013873;28;20023;-50
2021/12/09 06:59:52;;;;;;;100.30;34.88;;;3.20;99.90;;;;;;5012035;28;20033;-50
2021/12/09 07:02:18;;;;;;;100.30;35.75;;;3.20;99.90;;;;;;5011371;28;20030;-50
2021/12/09 07:04:43;;;;;;;101.72;37.53;;;3.20;99.90;;;;;;5011677;28;20494;-49
2021/12/09 07:07:09;;;;;;;91.65;36.25;;;3.20;99.90;;;;;;5012960;28;20436;-52
2021/12/09 07:09:37;;;;;;;102.40;39.65;;;3.20;99.90;;;;;;5013469;28;20036;-50
2021/12/09 07:12:03;;;;;;;92.50;37.47;;;3.20;99.90;;;;;;5013330;28;20432;-52
2021/12/09 07:14:29;;;;;;;97.47;35.70;;;3.20;99.90;;;;;;5013015;28;20367;-53
2021/12/09 07:16:55;;;;;;;87.82;33.47;;;3.20;99.90;;;;;;5013297;28;20084;-54
2021/12/09 07:19:20;;;;;;;106.18;37.55;;;3.10;99.90;;;;;;5012906;28;20022;-54
2021/12/09 07:21:46;;;;;;;104.25;37.28;;;3.20;99.90;;;;;;5012818;28;20172;-54
2021/12/09 07:24:12;;;;;;;92.10;35.03;;;3.20;99.90;;;;;;5013196;28;20029;-50
2021/12/09 07:26:38;;;;;;;96.80;36.03;;;3.10;99.90;;;;;;5011591;28;20025;-50
2021/12/09 07:29:04;;;;;;;101.57;36.58;;;3.20;99.90;;;;;;5012852;28;20099;-53
2021/12/09 07:31:30;;;;;;;97.38;36.90;;;3.20;99.90;;;;;;5013059;28;20101;-51
2021/12/09 07:33:56;;;;;;;95.15;35.45;;;3.20;99.90;;;;;;5013278;28;20059;-52
2021/12/09 07:36:23;;;;;;;92.65;33.75;;;3.20;99.90;;;;;;5013090;28;20364;-51
2021/12/09 07:38:48;;;;;;;92.80;34.25;;;3.20;99.90;;;;;;5012907;28;20065;-50
2021/12/09 07:41:15;;;;;;;87.47;33.90;;;3.10;99.90;;;;;;5012896;28;20144;-53
2021/12/09 07:43:42;;;;;;;86.95;32.58;;;3.10;99.90;;;;;;5012987;28;20026;-50
2021/12/09 07:46:07;;;;;;;90.30;34.30;;;3.20;99.90;;;;;;5013465;28;20032;-52
2021/12/09 07:48:33;;;;;;;91.78;35.60;;;3.20;99.90;;;;;;5013011;28;20042;-52
2021/12/09 07:50:59;;;;;;;101.80;34.67;;;3.20;99.90;;;;;;5011681;28;20034;-55
2021/12/09 07:53:25;;;;;;;97.70;35.53;;;3.20;99.90;;;;;;5012953;28;20034;-53
2021/12/09 07:55:53;;;;;;;93.13;34.63;;;3.10;99.90;;;;;;5012551;28;20046;-51
2021/12/09 07:58:19;;;;;;;96.10;35.08;;;3.10;99.90;;;;;;5012696;28;20026;-53
2021/12/09 08:00:45;;;;;;;101.68;35.85;;;3.10;99.90;;;;;;5012945;28;20034;-50
2021/12/09 08:03:11;;;;;;;106.53;35.05;;;3.10;99.90;;;;;;5013528;28;20061;-51
2021/12/09 08:05:40;;;;;;;92.85;36.20;;;3.10;99.90;;;;;;5013838;28;20037;-51
2021/12/09 08:08:06;;;;;;;106.43;34.40;;;3.10;99.90;;;;;;5016702;28;20508;-50
2021/12/09 08:10:33;;;;;;;102.68;37.05;;;3.10;99.90;;;;;;5016940;28;20038;-52
2021/12/09 08:13:00;;;;;;;107.50;37.42;;;3.10;99.90;;;;;;5016057;28;20075;-50
2021/12/09 08:15:33;;;;;;;108.47;36.75;;;3.10;99.90;;;;;;5016387;28;20026;-53
2021/12/09 08:18:14;;;;;;;104.88;37.78;;;3.10;99.90;;;;;;5016518;28;20022;-51
2021/12/09 08:20:40;;;;;;;103.60;35.88;;;3.10;99.90;;;;;;5016470;28;20022;-53
2021/12/09 08:23:06;;;;;;;95.15;35.20;;;3.10;99.90;;;;;;5015934;28;20088;-54
2021/12/09 08:25:32;;;;;;;93.50;34.22;;;3.20;99.90;;;;;;5016084;28;20642;-50
2021/12/09 08:27:58;;;;;;;108.68;39.25;;;3.20;99.90;;;;;;5014507;28;20025;-52
2021/12/09 08:30:25;;;;;;;103.38;37.03;;;3.20;99.90;;;;;;5015913;28;20399;-51
2021/12/09 08:32:53;;;;;;;87.13;33.60;;;3.30;99.90;;;;;;5016099;28;20033;-51
2021/12/09 08:35:19;;;;;;;99.50;37.22;;;3.30;99.90;;;;;;5016215;28;20017;-51
2021/12/09 08:37:46;;;;;;;93.75;34.38;;;3.30;99.90;;;;;;5016266;28;20360;-53
2021/12/09 08:40:14;;;;;;;94.60;34.63;;;3.30;99.90;;;;;;5016376;28;20045;-53
2021/12/09 08:42:40;;;;;;;89.22;34.85;;;3.30;99.90;;;;;;5016462;28;20018;-50
2021/12/09 08:45:09;;;;;;;92.65;34.17;;;3.30;99.90;;;;;;5016697;28;20030;-51
2021/12/09 08:47:36;;;;;;;104.75;36.10;;;3.30;99.90;;;;;;5015987;28;20178;-53
2021/12/09 08:50:03;;;;;;;96.82;34.10;;;3.30;99.90;;;;;;5015861;28;20041;-53
2021/12/09 08:52:29;;;;;;;97.30;35.75;;;3.20;99.90;;;;;;5014128;28;20116;-51
2021/12/09 08:54:54;;;;;;;100.55;35.72;;;3.20;99.90;;;;;;5015114;28;20030;-52
2021/12/09 08:57:22;;;;;;;94.53;33.25;;;3.20;99.90;;;;;;5015197;28;20404;-50
2021/12/09 08:59:48;;;;;;;101.50;36.85;;;3.30;99.90;;;;;;5015865;28;20032;-52
2021/12/09 09:02:14;;;;;;;95.40;34.10;;;3.30;99.90;;;;;;5014714;28;20479;-52
2021/12/09 09:04:40;;;;;;;99.68;36.38;;;3.30;99.90;;;;;;5015591;28;20040;-51
2021/12/09 09:07:07;;;;;;;105.75;38.67;;;3.30;99.90;;;;;;5016143;28;20411;-54
2021/12/09 09:09:34;;;;;;;99.28;36.05;;;3.30;99.90;;;;;;5016023;28;20391;-54
2021/12/09 09:12:03;;;;;;;96.28;35.63;;;3.30;99.90;;;;;;5015912;28;20034;-53
2021/12/09 09:14:30;;;;;;;94.40;35.28;;;3.30;99.90;;;;;;5013977;28;20021;-51
2021/12/09 09:16:56;;;;;;;97.00;35.53;;;3.30;99.90;;;;;;5014169;28;20049;-54
2021/12/09 09:19:22;;;;;;;98.60;36.05;;;3.40;99.90;;;;;;5015582;28;20030;-52
2021/12/09 09:21:48;;;;;;;93.50;35.10;;;3.40;99.90;;;;;;5014938;28;20317;-52
2021/12/09 09:24:14;;;;;;;105.50;37.10;;;3.40;99.90;;;;;;5015205;28;20025;-51
2021/12/09 09:26:41;;;;;;;96.72;35.78;;;3.40;99.90;;;;;;5014887;28;20107;-50
2021/12/09 09:29:07;;;;;;;92.57;35.95;;;3.40;99.90;;;;;;5015065;28;20049;-51
2021/12/09 09:31:33;;;;;;;95.32;35.58;;;3.40;99.90;;;;;;5014932;28;20026;-51
2021/12/09 09:34:02;;;;;;;88.00;35.15;;;3.40;99.90;;;;;;5015188;28;20088;-51
2021/12/09 09:36:28;;;;;;;99.75;35.38;;;3.50;99.90;;;;;;5014616;28;20133;-55
2021/12/09 09:39:00;;;;;;;89.40;35.60;;;3.40;99.90;;;;;;5014682;28;20072;-54
2021/12/09 09:41:31;;;;;;;97.90;35.58;;;3.40;99.90;;;;;;5015281;28;20041;-51
2021/12/09 09:43:58;;;;;;;89.13;34.80;;;3.40;99.90;;;;;;5015009;28;20022;-53
2021/12/09 09:46:29;;;;;;;97.55;36.20;;;3.40;99.90;;;;;;5015004;28;20054;-50
2021/12/09 09:48:58;;;;;;;94.65;36.05;;;3.50;99.90;;;;;;5014532;28;20088;-53
2021/12/09 09:51:27;;;;;;;93.70;33.50;;;3.50;99.90;;;;;;5014633;28;20029;-52
2021/12/09 09:53:53;;;;;;;100.18;35.53;;;3.50;99.90;;;;;;5014479;28;20045;-51
2021/12/09 09:56:22;;;;;;;92.90;33.85;;;3.50;99.90;;;;;;4997055;28;20051;-51
2021/12/09 09:58:54;;;;;;;89.00;35.50;;;3.50;99.90;;;;;;5014259;28;20022;-54
2021/12/09 10:01:20;;;;;;;98.97;36.10;;;3.60;99.90;;;;;;5014451;28;20018;-54
2021/12/09 10:03:48;;;;;;;108.60;36.47;;;3.50;99.90;;;;;;5014630;28;20136;-53
2021/12/09 10:06:15;;;;;;;98.30;35.15;;;3.50;99.90;;;;;;5014327;28;20108;-51
2021/12/09 10:08:41;;;;;;;96.32;35.50;;;3.60;99.90;;;;;;5014243;28;20107;-51
2021/12/09 10:11:08;;;;;;;94.70;35.10;;;3.60;99.90;;;;;;5014411;28;20104;-51
2021/12/09 10:13:37;;;;;;;93.45;37.17;;;3.60;99.90;;;;;;5014579;28;20097;-50
2021/12/09 10:16:14;;;;;;;91.63;35.95;;;3.60;99.90;;;;;;5013816;28;20024;-52
2021/12/09 10:18:44;;;;;;;104.25;37.85;;;3.60;99.90;;;;;;5014567;28;20049;-51
2021/12/09 10:21:13;;;;;;;101.72;36.47;;;3.60;99.90;;;;;;5014070;28;20026;-53
2021/12/09 10:23:42;;;;;;;93.30;35.28;;;3.60;99.90;;;;;;5013290;28;20125;-52
2021/12/09 10:26:20;;;;;;;93.13;37.95;;;3.70;99.90;;;;;;5014153;28;20491;-53
2021/12/09 10:28:52;;;;;;;97.63;34.90;;;3.80;99.90;;;;;;5014018;28;20518;-49
2021/12/09 10:31:22;;;;;;;104.95;37.53;;;3.80;99.90;;;;;;5013032;28;20455;-51
2021/12/09 10:34:45;;;;;;;94.95;34.92;;;3.70;99.90;;;;;;5014282;28;20030;-53
2021/12/09 10:37:26;;;;;;;102.45;36.45;;;3.80;99.90;;;;;;5010484;28;20049;-51
2021/12/09 10:39:56;;;;;;;95.40;35.83;;;3.80;99.90;;;;;;5013524;28;20094;-51
2021/12/09 10:42:32;;;;;;;104.93;38.20;;;3.80;99.90;;;;;;5014113;28;20034;-52
2021/12/09 10:44:59;;;;;;;97.30;36.33;;;3.80;99.90;;;;;;5012957;28;20505;-51
2021/12/09 10:50:20;;;;;;;105.68;36.17;;;3.70;99.90;;;;;;5013366;28;20037;-50
2021/12/09 10:52:51;;;;;;;97.60;36.08;;;3.70;99.90;;;;;;5013649;28;20109;-49
2021/12/09 10:55:18;;;;;;;104.05;36.30;;;3.80;99.90;;;;;;5013799;28;20026;-51
2021/12/09 10:57:44;;;;;;;104.53;37.85;;;3.80;99.90;;;;;;5013964;28;20109;-52
2021/12/09 11:00:24;;;;;;;97.55;34.90;;;3.90;99.90;;;;;;5014033;28;20025;-53
2021/12/09 11:03:12;;;;;;;104.30;36.28;;;3.90;99.90;;;;;;5014493;28;20109;-51
2021/12/09 11:05:42;;;;;;;99.32;35.65;;;3.90;99.90;;;;;;5014507;28;20026;-52
2021/12/09 11:08:38;;;;;;;99.25;35.92;;;3.80;99.90;;;;;;5014084;28;20555;-50
2021/12/09 11:11:05;;;;;;;101.65;35.75;;;3.90;99.90;;;;;;5010733;28;20034;-51
2021/12/09 11:13:56;;;;;;;97.47;37.10;;;3.90;99.90;;;;;;5014137;28;20057;-54
2021/12/09 11:16:26;;;;;;;95.07;34.00;;;3.90;99.90;;;;;;5010664;28;20034;-54
2021/12/09 11:19:15;;;;;;;95.37;36.67;;;3.90;99.90;;;;;;5013092;28;20502;-51
2021/12/09 11:21:54;;;;;;;88.45;33.60;;;4.00;99.90;;;;;;5012914;28;20265;-50
2021/12/09 11:24:22;;;;;;;95.07;34.33;;;4.10;99.90;;;;;;5013405;28;20028;-51
2021/12/09 11:26:58;;;;;;;92.68;34.10;;;4.10;99.90;;;;;;5011215;28;20121;-51
2021/12/09 11:29:30;;;;;;;84.15;33.08;;;4.10;99.90;;;;;;5013075;28;20056;-52
2021/12/09 11:32:08;;;;;;;96.53;34.13;;;4.10;99.90;;;;;;5012787;28;20033;-52
2021/12/09 11:34:38;;;;;;;94.28;33.25;;;4.10;99.90;;;;;;5013070;28;20080;-51
2021/12/09 11:37:35;;;;;;;79.80;32.70;;;4.00;99.90;;;;;;5012462;28;20018;-51
2021/12/09 11:39:52;;;;;;;89.85;33.80;;;4.10;99.90;;;;;;5012915;28;20084;-51
2021/12/09 11:42:25;;;;;;;93.32;34.88;;;4.10;99.90;;;;;;5017535;28;20033;-50
2021/12/09 11:44:51;;;;;;;96.10;35.60;;;4.10;99.90;;;;;;5016133;28;20026;-53
2021/12/09 11:47:17;;;;;;;90.70;34.35;;;4.10;99.90;;;;;;5014744;28;20026;-51
2021/12/09 11:49:43;;;;;;;95.03;35.72;;;4.10;99.90;;;;;;5016254;28;20447;-53
2021/12/09 11:52:12;;;;;;;92.50;35.83;;;4.10;99.90;;;;;;5016139;28;20049;-51
2021/12/09 11:54:38;;;;;;;91.00;34.10;;;4.10;99.90;;;;;;5016794;28;20026;-52
2021/12/09 11:57:15;;;;;;;72.63;30.45;;;4.20;99.90;;;;;;5017199;28;20072;-50
2021/12/09 12:11:20;;;;;;;77.10;30.88;;;4.30;99.90;;;;;;5017530;28;20049;-51
2021/12/09 12:14:01;;;;;;;86.18;31.95;;;4.20;99.90;;;;;;5017221;28;20053;-52
2021/12/09 12:16:35;;;;;;;;;;;4.10;99.90;;;;;;5018181;28;20425;-54
2021/12/09 12:19:45;;;;;;;81.15;29.75;;;4.10;99.90;;;;;;5017425;28;20370;-52
2021/12/09 12:22:08;;;;;;;78.45;30.75;;;4.10;99.90;;;;;;5013570;28;20042;-53
2021/12/09 12:25:01;;;;;;;81.22;32.25;;;4.00;99.90;;;;;;5016622;28;20026;-54
2021/12/09 12:27:41;;;;;;;82.00;33.05;;;4.10;99.90;;;;;;5015717;28;20022;-55
2021/12/09 12:30:33;;;;;;;92.18;34.00;;;4.00;99.90;;;;;;5015825;28;20030;-55
2021/12/09 12:35:57;;;;;;;84.07;32.45;;;4.00;99.90;;;;;;5016073;28;20064;-53
2021/12/09 12:41:04;;;;;;;85.70;32.58;;;3.90;99.90;;;;;;5016202;28;20037;-54
2021/12/09 12:43:46;;;;;;;81.73;32.87;;;3.90;99.90;;;;;;5015792;28;20026;-56
2021/12/09 12:47:11;;;;;;;91.85;31.83;;;4.00;99.90;;;;;;5015754;28;20125;-56
2021/12/09 12:49:36;;;;;;;88.22;32.30;;;4.00;99.90;;;;;;5014607;28;20111;-55
2021/12/09 12:52:13;;;;;;;87.70;33.15;;;3.90;99.90;;;;;;5015236;28;20025;-52
2021/12/09 12:54:55;;;;;;;89.30;33.75;;;4.00;99.90;;;;;;5015555;28;20032;-55
2021/12/09 12:57:34;;;;;;;84.13;32.33;;;4.00;99.90;;;;;;5016118;28;20018;-52
2021/12/09 13:00:09;;;;;;;87.93;31.80;;;4.10;99.90;;;;;;5015979;28;20392;-55
2021/12/09 13:06:17;;;;;;;80.93;32.22;;;4.20;99.90;;;;;;5015425;28;20030;-55
2021/12/09 13:09:00;;;;;;;78.28;30.55;;;4.20;99.90;;;;;;5007776;28;20176;-55